Tofte, Minnesota
Current Conditions -  °F | °C
As of 3:33 AM on Thursday 23 Oct 2014 (Local Time) from KCKC Reporting Station
Broken Clouds Broken Clouds  
Wind Chill:   Ceiling: 9000
Heat Index:   Visibility: 10mi
Dew Point:   Wind: 5mph
Humidity: 76%   Direction: 120°ESE
Pressure: 30.02"   Gusts: NA
Location:  47.57°N, 90.84°W
Report Text: KCKC 230833Z AUTO 12004KT 10SM BKN090 06/02 A3002 RMK AO2
Loading
Personal Weather Stations






























Interactive Weather Map
Tropical Storm Tracking
New forecast layout! Learn more

10-Day Weather Forecast

Advertisements
Track Severe Weather on mobile